Latest Weather Observations for Thredbo Top Station

IDN60801

Issued at 5:33 am EST Tuesday 30 August 2016 (issued every 30 minutes, with the page automatically refreshed every 10 minutes)

About weather observations | Map of weather stations | Latest weather observations for NSW | Other Formats
Station Details ID: 071032 Name: THREDBO AWS Lat: -36.49 Lon: 148.29 Height: 1957.0 m
Data from the previous 72 hours. | See also: Recent months at Thredbo Top Station
Date/Time
EST
Temp
°C
App
Temp
°C
Dew
Point
°C
Rel
Hum
%
Delta-T
°C
Wind Press
QNH
hPa
Press
MSL
hPa
Rain since
9am
mm
Dir  Spd
km/h
Gust
km/h
Spd
kts
Gust
kts
30/05:30am 2.1 -6.6 -15.4 26 5.1 NNW 28 30 15 16 1024.5 1028.0 0.0
30/05:00am 2.0 -9.2 -15.5 26 5.1 NNW 41 46 22 25 1023.3 1026.7 0.0
30/04:30am 3.9 -7.8 -19.6 16 6.4 NNW 43 48 23 26 1022.8 1026.2 0.0
30/04:00am 3.4 -7.9 -18.0 19 6.0 NNW 41 44 22 24 1022.8 1026.2 0.0
30/03:30am 3.2 -6.5 -20.2 16 6.2 NNW 32 39 17 21 1023.4 1026.9 0.0
30/03:00am 3.9 -3.7 -9.8 36 4.8 NNW 24 30 13 16 1024.5 1028.0 0.0
30/02:30am 3.1 -4.3 -7.7 45 4.0 NNW 24 26 13 14 1024.3 1027.9 0.0
30/02:00am 1.8 -6.2 -10.7 39 4.1 NNW 26 26 14 14 1024.5 1028.0 0.0
30/01:30am -0.1 -8.2 -11.7 41 3.5 NNW 26 26 14 14 1024.7 1028.3 0.0
30/01:00am -0.4 -8.6 -12.3 40 3.5 NNW 26 28 14 15 1025.0 1028.5 0.0
30/12:30am 1.0 -6.9 -15.0 29 4.6 NNW 24 26 13 14 1025.3 1028.9 0.0
30/12:00am 1.9 -6.1 -15.5 26 5.0 NNW 24 24 13 13 1025.4 1029.0 0.0
 
Date/Time
EST
Temp
°C
App
Temp
°C
Dew
Point
°C
Rel
Hum
%
Delta-T
°C
Wind Press
QNH
hPa
Press
MSL
hPa
Rain since
9am
mm
Dir  Spd
km/h
Gust
km/h
Spd
kts
Gust
kts
29/11:30pm 1.9 -6.1 -15.5 26 5.0 NNW 24 28 13 15 1025.4 1029.0 0.0
29/11:00pm 1.9 -6.8 -16.0 25 5.1 NNW 28 30 15 16 1025.1 1028.7 0.0
29/10:30pm 3.1 -5.0 -17.6 20 5.8 NNW 24 28 13 15 1025.1 1028.7 0.0
29/10:00pm -1.1 -8.7 -9.4 53 2.6 NNW 24 26 13 14 1025.4 1029.0 0.0
29/09:30pm -0.8 -7.7 -10.2 49 2.9 N 20 24 11 13 1025.2 1028.8 0.0
29/09:00pm -0.4 -7.0 -6.6 63 2.1 NNW 20 22 11 12 1025.8 1029.4 0.0
29/08:30pm -0.9 -6.2 -3.4 83 0.9 N 15 20 8 11 1025.8 1029.4 0.0
29/08:00pm -0.4 -4.3 -1.7 91 0.5 N 9 13 5 7 1025.7 1029.3 0.0
29/07:30pm 1.7 -2.0 0.1 89 0.7 NNE 9 15 5 8 1025.6 1029.2 0.0
29/07:00pm 1.0 -3.5 -0.3 91 0.5 NNW 13 15 7 8 1025.3 1028.9 0.0
29/06:30pm 0.2 -4.0 -0.9 92 0.5 N 11 13 6 7 1025.1 1028.7 0.0
29/06:00pm 1.1 -3.3 0.4 95 0.3 N 13 15 7 8 1025.3 1028.9 0.0
29/05:30pm 1.6 -3.6 0.4 92 0.5 N 17 19 9 10 1025.4 1029.0 0.0
29/05:00pm 2.8 -2.0 -2.3 69 2.0 NNW 13 19 7 10 1025.4 1029.0 0.0
29/04:30pm 2.4 -1.3 -0.2 83 1.1 NNW 9 15 5 8 1025.3 1028.9 0.0
29/04:00pm 1.9 -1.8 -0.3 85 0.9 NNW 9 17 5 9 1025.3 1028.9 0.0
29/03:30pm 2.2 -1.1 0.1 86 0.9 N 7 9 4 5 1025.2 1028.8 0.0
29/03:00pm 3.3 -0.2 1.2 86 0.9 N 9 11 5 6 1025.1 1028.7 0.0
29/02:30pm 2.2 -1.5 -0.1 85 1.0 NNW 9 15 5 8 1025.3 1028.9 0.0
29/02:00pm 2.7 0.0 0.3 84 1.0 NNW 4 7 2 4 1025.3 1028.9 0.0
29/01:30pm 2.9 -0.2 1.3 89 0.7 N 7 9 4 5 1025.1 1028.7 0.0
29/01:00pm 2.8 -0.1 1.2 89 0.7 NNW 6 7 3 4 1025.1 1028.7 0.0
29/12:30pm 2.2 -1.4 0.7 90 0.6 N 9 13 5 7 1025.2 1028.8 0.0
29/12:00pm 1.8 -1.8 0.3 90 0.6 N 9 13 5 7 1025.6 1029.2 0.0
29/11:30am 1.8 -2.2 0.6 92 0.5 N 11 15 6 8 1025.9 1029.5 0.0
29/11:00am 1.1 -3.3 0.2 94 0.4 N 13 15 7 8 1026.0 1029.7 0.0
29/10:30am 0.4 -3.3 -0.3 95 0.3 N 9 13 5 7 1026.4 1030.1 0.0
29/10:00am 0.2 -3.0 -0.5 95 0.3 N 6 13 3 7 1026.7 1030.3 0.0
29/09:30am -0.8 -5.1 -1.5 95 0.2 N 11 17 6 9 1026.7 1030.3 0.0
29/09:00am -1.7 -6.5 -2.5 94 0.2 N 13 17 7 9 1026.5 1030.2 0.0
29/08:30am -1.6 -6.4 -2.6 93 0.3 N 13 17 7 9 1026.2 1029.8 0.0
29/08:00am -2.6 -6.7 -3.4 94 0.2 N 9 17 5 9 1025.9 1029.5 0.0
29/07:30am -3.1 -6.9 -3.9 94 0.1 NNE 7 13 4 7 1025.8 1029.4 0.0
29/07:00am -4.3 -8.1 -5.4 92 0.2 NNE 6 9 3 5 1025.2 1028.8 0.0
29/06:30am -4.0 -8.4 -5.8 87 0.4 NW 9 13 5 7 1024.8 1028.4 0.0
29/06:00am -4.7 -9.2 -6.7 86 0.5 NW 9 11 5 6 1024.5 1028.0 0.0
29/05:30am -4.5 -8.0 -6.3 87 0.4 NNW 4 9 2 5 1024.2 1027.8 0.0
29/05:00am -2.4 -6.6 -3.7 91 0.4 WNW 9 13 5 7 1024.1 1027.6 0.0
29/04:30am -2.2 -8.3 -2.7 96 0.1 W 20 28 11 15 1024.0 1027.5 0.0
29/04:00am -2.1 -7.7 -2.5 97 0.0 W 17 24 9 13 1023.7 1027.3 0.0
29/03:30am -2.0 -7.5 -2.3 98 0.0 WNW 17 30 9 16 1023.7 1027.3 0.0
29/03:00am -2.0 -9.6 -2.1 99 -0.1 W 28 41 15 22 1023.1 1026.6 0.0
29/02:30am -1.7 -10.6 -1.8 99 0.0 WNW 35 41 19 22 1023.3 1026.7 0.0
29/02:00am -1.7 -10.6 -1.8 99 0.0 WNW 35 41 19 22 1023.3 1026.7 0.0
29/01:30am -1.8 -10.3 -2.1 98 0.0 W 33 43 18 23 1023.3 1026.7 0.0
29/01:00am -2.1 -11.1 -2.5 97 0.0 WNW 35 41 19 22 1023.3 1026.7 0.0
29/12:30am -2.0 -10.9 -2.1 99 -0.1 NW 35 39 19 21 1022.9 1026.4 0.0
29/12:00am -2.0 -10.5 -2.1 99 -0.1 NW 33 39 18 21 1022.8 1026.2 0.0
 
Date/Time
EST
Temp
°C
App
Temp
°C
Dew
Point
°C
Rel
Hum
%
Delta-T
°C
Wind Press
QNH
hPa
Press
MSL
hPa
Rain since
9am
mm
Dir  Spd
km/h
Gust
km/h
Spd
kts
Gust
kts
28/11:30pm -2.0 -10.4 -2.4 97 0.1 NW 32 37 17 20 1022.7 1026.1 0.0
28/11:00pm -2.0 -9.2 -2.1 99 -0.1 NW 26 35 14 19 1022.5 1026.0 0.0
28/10:30pm -1.8 -9.7 -1.9 99 -0.1 NW 30 35 16 19 1022.4 1025.9 0.0
28/10:00pm -1.8 -9.4 -1.9 99 -0.1 NNW 28 32 15 17 1022.2 1025.6 0.0
28/09:30pm -1.6 -9.9 -1.7 99 0.0 NNW 32 37 17 20 1021.6 1025.0 0.0
28/09:00pm -1.8 -9.7 -1.9 99 -0.1 NNW 30 35 16 19 1021.4 1024.8 0.0
28/08:30pm -1.6 -10.1 -1.7 99 0.0 NNW 33 41 18 22 1021.0 1024.3 0.0
28/08:00pm -1.5 -9.8 -1.6 99 0.0 NNW 32 39 17 21 1021.0 1024.3 0.0
28/07:30pm -1.4 -8.5 -1.5 99 0.0 NW 26 32 14 17 1021.4 1024.8 0.0
28/07:00pm -1.7 -9.6 -1.8 99 0.0 NW 30 41 16 22 1021.6 1025.0 0.0
28/06:30pm -1.6 -10.1 -1.7 99 0.0 NW 33 44 18 24 1021.2 1024.6 0.0
28/06:00pm -1.5 -10.0 -1.6 99 0.0 NW 33 46 18 25 1020.8 1024.2 0.0
28/05:30pm -1.4 -10.6 -1.5 99 0.0 NW 37 46 20 25 1020.2 1023.6 0.0
28/05:00pm -1.4 -10.2 -1.5 99 0.0 NW 35 43 19 23 1020.1 1023.4 0.0
28/04:30pm -1.5 -10.0 -1.6 99 0.0 NW 33 43 18 23 1020.0 1023.3 0.0
28/04:00pm -1.5 -10.7 -1.6 99 0.0 NW 37 46 20 25 1019.6 1022.9 0.0
28/03:30pm -1.5 -10.4 -1.6 99 0.0 NW 35 46 19 25 1019.7 1023.1 0.0
28/03:00pm -1.3 -10.5 -1.4 99 0.0 NW 37 48 20 26 1019.4 1022.7 0.0
28/02:30pm -1.4 -10.6 -1.5 99 0.0 NW 37 52 20 28 1019.3 1022.5 0.0
28/02:00pm -1.6 -10.5 -1.7 99 0.0 WNW 35 44 19 24 1019.7 1023.1 0.0
28/01:30pm -1.5 -11.1 -1.6 99 0.0 NW 39 50 21 27 1019.3 1022.5 0.0
28/01:00pm -1.4 -11.4 -1.5 99 0.0 WNW 41 54 22 29 1019.5 1022.8 0.0
28/12:30pm -1.7 -12.1 -1.8 99 0.0 NW 43 54 23 29 1019.5 1022.8 0.0
28/12:00pm -1.7 -12.1 -1.8 99 0.0 WNW 43 52 23 28 1019.7 1023.1 0.0
28/11:30am -2.2 -11.1 -2.3 99 -0.1 NW 35 46 19 25 1019.9 1023.2 0.0
28/11:00am -2.3 -11.3 -2.4 99 -0.1 NW 35 44 19 24 1020.6 1023.9 0.0
28/10:30am -2.4 -11.8 -2.5 99 -0.1 NW 37 43 20 23 1020.4 1023.7 0.0
28/10:00am -2.6 -12.0 -2.7 99 -0.1 NW 37 48 20 26 1020.1 1023.4 0.0
28/09:41am -2.6 -11.6 -2.7 99 -0.1 WNW 35 54 19 29 1019.9 1023.2 0.0
28/09:30am -2.7 -12.1 -2.8 99 -0.1 WNW 37 46 20 25 1020.4 1023.7 0.0
28/09:00am -2.9 -12.7 -3.0 99 -0.1 WNW 39 52 21 28 1019.6 1022.9 0.0
28/08:30am -3.0 -12.8 -3.1 99 -0.1 NW 39 57 21 31 1019.1 1022.4 0.0
28/08:04am -3.0 -12.4 -3.1 99 -0.1 NW 37 56 20 30 1019.6 1022.9 0.0
28/08:00am -3.1 -12.9 -3.2 99 -0.1 NW 39 50 21 27 1019.4 1022.7 0.0
28/07:34am -3.1 -12.9 -3.2 99 -0.1 WNW 39 57 21 31 1019.6 1022.9 0.0
28/07:30am -3.1 -12.5 -3.2 99 -0.1 WNW 37 50 20 27 1019.7 1023.1 0.0
28/07:00am -3.3 -12.8 -3.4 99 -0.1 WNW 37 56 20 30 1018.9 1022.2 0.0
28/06:30am -3.3 -14.1 -3.4 99 -0.1 WNW 44 57 24 31 1018.3 1021.5 0.0
28/06:00am -3.3 -14.1 -3.4 99 -0.1 WNW 44 61 24 33 1017.9 1021.1 0.0
28/05:43am -3.3 -13.9 -3.4 99 -0.1 WNW 43 65 23 35 1017.7 1020.9 0.0
28/05:30am -3.4 -14.2 -3.5 99 -0.1 WNW 44 59 24 32 1017.8 1021.0 0.0
28/05:00am -3.7 -14.9 -3.8 99 -0.1 NW 46 56 25 30 1017.3 1020.5 0.0
28/04:30am -3.9 -15.9 -4.0 99 -0.1 NW 50 59 27 32 1017.0 1020.1 0.0
28/04:00am -3.9 -15.5 -4.0 99 -0.1 NW 48 57 26 31 1016.7 1019.9 0.0
28/03:30am -4.1 -16.1 -4.2 99 -0.2 NW 50 59 27 32 1016.5 1019.6 0.0
28/03:00am -4.1 -16.1 -4.2 99 -0.2 NW 50 63 27 34 1016.5 1019.6 0.0
28/02:30am -4.0 -16.4 -4.1 99 -0.1 NW 52 63 28 34 1016.5 1019.6 0.0
28/02:00am -4.0 -16.0 -4.1 99 -0.1 NW 50 65 27 35 1016.7 1019.9 0.0
28/01:30am -4.3 -15.2 -4.6 98 -0.1 NW 44 56 24 30 1018.2 1021.4 0.0
28/01:00am -4.4 -17.2 -4.7 98 -0.1 NW 54 67 29 36 1017.1 1020.3 0.0
28/12:30am -4.7 -16.4 -5.0 98 -0.1 NW 48 57 26 31 1017.8 1021.0 0.0
28/12:00am -5.1 -16.5 -5.4 98 -0.1 NW 46 54 25 29 1018.0 1021.3 0.0
 
Date/Time
EST
Temp
°C
App
Temp
°C
Dew
Point
°C
Rel
Hum
%
Delta-T
°C
Wind Press
QNH
hPa
Press
MSL
hPa
Rain since
9am
mm
Dir  Spd
km/h
Gust
km/h
Spd
kts
Gust
kts
27/11:30pm -5.2 -15.3 -5.5 98 -0.1 NW 39 44 21 24 1018.0 1021.3 0.0
27/11:00pm -4.4 -15.2 -4.9 96 0.0 NW 43 48 23 26 1018.3 1021.5 0.0
27/10:30pm -4.5 -15.4 -4.8 98 -0.1 NW 44 54 24 29 1018.0 1021.3 0.0
27/10:00pm -4.7 -15.5 -5.0 98 -0.1 NW 43 52 23 28 1018.5 1021.8 0.0
27/09:30pm -4.5 -15.8 -4.8 98 -0.1 NW 46 57 25 31 1018.0 1021.3 0.0
27/09:00pm -3.9 -15.2 -4.2 98 -0.1 NW 46 56 25 30 1017.7 1020.9 0.0
27/08:30pm -4.0 -17.2 -4.1 99 -0.1 NW 56 69 30 37 1016.8 1020.0 0.0
27/08:00pm -3.8 -14.6 -3.9 99 -0.1 NW 44 54 24 29 1017.2 1020.4 0.0
27/07:30pm -3.4 -14.2 -3.7 98 -0.1 NW 44 54 24 29 1016.6 1019.8 0.0
27/07:00pm -4.1 -14.8 -4.2 99 -0.2 NNW 43 50 23 27 1016.8 1020.0 0.0
27/06:30pm -3.9 -14.8 -4.0 99 -0.1 NW 44 54 24 29 1017.3 1020.5 0.0
27/06:00pm -4.2 -14.9 -4.3 99 -0.2 NW 43 54 23 29 1017.3 1020.5 0.0
27/05:30pm -4.2 -14.5 -4.5 98 -0.1 NW 41 50 22 27 1017.0 1020.1 0.0
27/05:00pm -3.3 -13.9 -3.6 98 0.0 NW 43 48 23 26 1016.7 1019.9 0.0
27/04:30pm -2.8 -13.9 -3.2 97 0.0 NW 46 56 25 30 1016.6 1019.8 0.0
27/04:00pm -2.3 -12.8 -2.8 96 0.1 NW 43 56 23 30 1017.0 1020.1 0.0
27/03:30pm -2.1 -12.6 -2.6 96 0.1 NW 43 54 23 29 1017.1 1020.3 0.0
27/03:00pm -3.2 -13.4 -3.5 98 0.0 NW 41 54 22 29 1017.1 1020.3 0.0
27/02:30pm -2.2 -11.9 -2.6 97 0.0 NNW 39 48 21 26 1017.3 1020.5 0.0
27/02:00pm -2.1 -11.8 -2.4 98 0.0 NW 39 50 21 27 1017.4 1020.6 0.0
27/01:30pm -3.6 -13.1 -3.9 98 -0.1 NW 37 46 20 25 1017.1 1020.3 0.0
27/01:00pm -3.6 -13.5 -3.7 99 -0.1 NNW 39 46 21 25 1017.3 1020.5 0.0
27/12:30pm -3.4 -12.9 -3.7 98 -0.1 NW 37 46 20 25 1017.7 1020.9 0.0
27/12:00pm -3.0 -12.1 -3.3 98 0.0 NW 35 41 19 22 1018.4 1021.7 0.0
27/11:30am -3.4 -12.5 -3.9 96 0.0 NW 35 43 19 23 1018.8 1022.0 0.0
27/11:00am -2.4 -13.0 -3.4 93 0.3 NW 43 50 23 27 1019.0 1022.3 0.0
27/10:30am -2.5 -13.2 -4.1 89 0.5 NW 43 50 23 27 1018.9 1022.2 0.0
27/10:00am -2.7 -12.9 -3.2 96 0.1 NW 41 48 22 26 1018.9 1022.2 0.0
27/09:30am -2.5 -11.9 -2.8 98 0.0 NW 37 44 20 24 1019.3 1022.5 0.0
27/09:00am -2.6 -11.1 -2.9 98 0.0 NW 32 39 17 21 1019.6 1022.9 1.2
27/08:30am -3.0 -10.0 -3.3 98 0.0 WNW 24 32 13 17 1019.6 1022.9 1.2
27/08:00am -3.7 -10.8 -4.0 98 -0.1 WNW 24 30 13 16 1019.4 1022.7 1.2
27/07:30am -4.3 -11.4 -4.7 97 -0.1 NW 24 32 13 17 1019.3 1022.5 1.2
27/07:00am -5.0 -12.2 -5.4 97 -0.1 WNW 24 30 13 16 1019.1 1022.4 1.2
27/06:30am -5.0 -12.2 -5.5 96 0.0 WNW 24 32 13 17 1018.8 1022.0 1.2
27/06:00am -5.6 -12.9 -6.1 96 -0.1 NW 24 28 13 15 1018.8 1022.0 1.2

Other Formats:

Comma delimited format used in spreadsheet applications
http://www.bom.gov.au/fwo/IDN60801/IDN60801.95909.axf

JavaScript Object Notation format (JSON) in row-major order
http://www.bom.gov.au/fwo/IDN60801/IDN60801.95909.json